KEGE/EGE METAR and TAF weather

Enter ICAO airport designator
Station Type Date Time Source
KEGE METAR 2022/05/23 14:56 UTC NOAA

KEGE 231456Z VRB04KT 10SM SCT065 08/01 A3010 RMK AO2 SLP102 T00830011 50011


Station Type Date Time Source
KEGE Decoded METAR 2022/05/23 14:56 UTC NOAA

Eagle County Regional, CO, United States (KEGE) 39-39N 106-55W
May 23, 2022 - 10:56 AM EDT / 2022.05.23 1456 UTC
Wind: Variable at 5 MPH (4 KT):0
Visibility: 10 mile(s):0
Sky conditions: partly cloudy
Temperature: 46.9 F (8.3 C)
Dew Point: 34.0 F (1.1 C)
Relative Humidity: 60%
Pressure (altimeter): 30.1 in. Hg (1019 hPa)
Pressure tendency: 0.03 inches (1.1 hPa) higher than three hours ago
ob: KEGE 231456Z VRB04KT 10SM SCT065 08/01 A3010 RMK AO2 SLP102 T00830011 50011
cycle: 15

Station Type Date Time Source
KEGE TAF 2022/05/23 12:22 UTC NOAA

TAF KEGE 231120Z 2312/2412 26004KT P6SM BKN100
FM231800 26006KT P6SM FEW070 SCT200
FM232100 27009KT P6SM BKN250
FM240100 34008KT P6SM SCT070 BKN150
FM240300 06005KT P6SM SCT070 BKN150

Example: see airport list